createdAt,value
2019-05-23T00:00:23.893Z,0
2019-05-23T00:01:04.536Z,0
2019-05-23T00:01:45.094Z,0
2019-05-23T00:05:07.980Z,0
2019-05-23T00:05:48.566Z,0
2019-05-23T00:06:29.130Z,0
2019-05-23T00:07:09.673Z,0
2019-05-23T00:07:50.226Z,0
2019-05-23T00:08:30.816Z,0
2019-05-23T00:09:11.373Z,0
2019-05-23T00:09:51.950Z,0
2019-05-23T00:10:32.519Z,0
2019-05-23T00:17:18.214Z,0
2019-05-23T00:17:58.796Z,0
2019-05-23T00:18:39.360Z,0
2019-05-23T00:19:19.981Z,0
2019-05-23T00:20:00.546Z,0
2019-05-23T00:20:41.092Z,0
2019-05-23T00:21:21.637Z,0
2019-05-23T00:22:02.207Z,0
2019-05-23T00:22:42.767Z,0
2019-05-23T00:26:46.214Z,0
2019-05-23T00:27:26.783Z,0
2019-05-23T00:28:07.407Z,0
2019-05-23T00:28:47.969Z,0
2019-05-23T00:29:28.547Z,0
2019-05-23T00:32:51.489Z,0
2019-05-23T00:33:32.047Z,0
2019-05-23T00:34:12.620Z,0
2019-05-23T00:34:53.178Z,0
2019-05-23T00:35:33.735Z,0
2019-05-23T00:36:14.306Z,0
2019-05-23T00:36:54.998Z,0
2019-05-23T00:37:35.457Z,0
2019-05-23T00:38:16.006Z,0
2019-05-23T00:44:52.732Z,0
2019-05-23T00:45:33.348Z,0
2019-05-23T00:46:13.915Z,0
2019-05-23T00:46:54.465Z,0
2019-05-23T00:50:17.339Z,0
2019-05-23T00:50:57.950Z,0
2019-05-23T00:51:38.492Z,0
2019-05-23T00:52:19.065Z,0
2019-05-23T00:52:59.648Z,0
2019-05-23T00:53:40.219Z,0
2019-05-23T00:54:20.851Z,0
2019-05-23T00:55:01.404Z,0
2019-05-23T00:55:41.986Z,0
2019-05-23T01:02:27.823Z,0
2019-05-23T01:03:08.369Z,0
2019-05-23T01:03:48.956Z,0
2019-05-23T01:04:29.505Z,0
2019-05-23T01:05:10.056Z,0
2019-05-23T01:05:50.626Z,0
2019-05-23T01:06:31.249Z,0
2019-05-23T01:07:11.815Z,0
2019-05-23T01:07:52.372Z,0
2019-05-23T01:13:57.547Z,0
2019-05-23T01:14:38.102Z,0
2019-05-23T01:15:18.705Z,0
2019-05-23T01:15:59.301Z,0
2019-05-23T01:16:39.886Z,0
2019-05-23T01:17:20.553Z,0
2019-05-23T01:18:01.059Z,0
2019-05-23T01:18:41.613Z,0
2019-05-23T01:19:22.188Z,0
2019-05-23T01:25:27.361Z,0
2019-05-23T01:26:07.943Z,0
2019-05-23T01:26:48.496Z,0
2019-05-23T01:27:29.074Z,0
2019-05-23T01:28:09.663Z,0
2019-05-23T01:28:50.227Z,0
2019-05-23T01:29:37.535Z,0
2019-05-23T01:30:11.377Z,0
2019-05-23T01:30:51.926Z,0
2019-05-23T01:37:37.708Z,0
2019-05-23T01:38:18.300Z,0
2019-05-23T01:38:58.844Z,0
2019-05-23T01:39:39.386Z,0
2019-05-23T01:40:19.991Z,0
2019-05-23T01:41:00.560Z,0
2019-05-23T01:41:41.128Z,0
2019-05-23T01:42:21.739Z,0
2019-05-23T01:43:02.325Z,0
2019-05-23T01:49:07.477Z,0
2019-05-23T01:49:48.049Z,0
2019-05-23T01:50:28.630Z,0
2019-05-23T01:51:09.358Z,0
2019-05-23T01:51:49.874Z,0
2019-05-23T01:52:30.456Z,0
2019-05-23T01:53:11.057Z,0
2019-05-23T01:53:51.604Z,0
2019-05-23T01:54:32.183Z,0
2019-05-23T02:00:37.467Z,0
2019-05-23T02:01:18.021Z,0
2019-05-23T02:01:58.586Z,0
2019-05-23T02:02:39.157Z,0
2019-05-23T02:03:19.838Z,0
2019-05-23T02:04:00.413Z,0
2019-05-23T02:04:40.979Z,0
2019-05-23T02:05:21.549Z,0
2019-05-23T02:06:02.126Z,0
2019-05-23T02:12:07.462Z,0
2019-05-23T02:12:48.033Z,0
2019-05-23T02:13:28.569Z,0
2019-05-23T02:14:09.139Z,0
2019-05-23T02:14:49.684Z,0
2019-05-23T02:15:30.281Z,0
2019-05-23T02:16:10.859Z,0
2019-05-23T02:16:51.416Z,0
2019-05-23T02:17:31.974Z,0
2019-05-23T02:24:17.825Z,0
2019-05-23T02:24:58.384Z,0
2019-05-23T02:25:38.949Z,0
2019-05-23T02:26:19.529Z,0
2019-05-23T02:27:00.097Z,0
2019-05-23T02:27:40.670Z,0
2019-05-23T02:28:21.264Z,0
2019-05-23T02:29:01.833Z,0
2019-05-23T02:35:47.543Z,0
2019-05-23T02:36:28.098Z,0
2019-05-23T02:37:08.688Z,0
2019-05-23T02:37:49.337Z,0
2019-05-23T02:38:29.901Z,0
2019-05-23T02:39:10.488Z,0
2019-05-23T02:39:51.063Z,0
2019-05-23T02:40:31.636Z,0
2019-05-23T02:41:12.221Z,0
2019-05-23T02:47:17.362Z,0
2019-05-23T02:47:57.950Z,0
2019-05-23T02:48:38.534Z,0
2019-05-23T02:49:19.112Z,0
2019-05-23T02:49:59.701Z,0
2019-05-23T02:50:40.299Z,0
2019-05-23T02:51:20.864Z,0
2019-05-23T02:52:01.440Z,0
2019-05-23T02:52:42.029Z,0
2019-05-23T02:59:27.710Z,0
2019-05-23T03:00:08.257Z,0
2019-05-23T03:00:54.007Z,0
2019-05-23T03:01:29.397Z,0
2019-05-23T03:02:09.953Z,0
2019-05-23T03:02:50.493Z,0
2019-05-23T03:03:31.076Z,0
2019-05-23T03:04:11.642Z,0
2019-05-23T03:04:52.198Z,0
2019-05-23T03:10:57.456Z,0
2019-05-23T03:11:38.022Z,0
2019-05-23T03:12:18.647Z,0
2019-05-23T03:12:59.227Z,0
2019-05-23T03:13:39.783Z,0
2019-05-23T03:14:20.352Z,0
2019-05-23T03:15:00.915Z,0
2019-05-23T03:15:41.469Z,0
2019-05-23T03:16:22.043Z,0
2019-05-23T03:23:07.828Z,0
2019-05-23T03:23:48.456Z,0
2019-05-23T03:24:29.007Z,0
2019-05-23T03:25:09.582Z,0
2019-05-23T03:25:50.565Z,0
2019-05-23T03:26:31.141Z,0
2019-05-23T03:27:11.768Z,0
2019-05-23T03:27:52.364Z,0
2019-05-23T03:32:27.944Z,0
2019-05-23T03:33:08.508Z,5
2019-05-23T03:33:49.069Z,5
2019-05-23T03:34:29.625Z,5
2019-05-23T03:37:52.571Z,5
2019-05-23T03:38:33.162Z,5
2019-05-23T03:39:13.713Z,5
2019-05-23T03:39:54.289Z,5
2019-05-23T03:40:34.910Z,5
2019-05-23T03:41:15.588Z,5
2019-05-23T03:41:56.159Z,5
2019-05-23T03:42:36.737Z,5
2019-05-23T03:43:17.280Z,5
2019-05-23T03:49:22.516Z,15
2019-05-23T03:50:03.094Z,15
2019-05-23T03:50:43.630Z,15
2019-05-23T03:51:24.199Z,15
2019-05-23T03:52:04.806Z,15
2019-05-23T03:52:45.388Z,15
2019-05-23T03:53:25.948Z,15
2019-05-23T03:54:06.542Z,20
2019-05-23T03:54:47.092Z,20
2019-05-23T04:01:46.554Z,25
2019-05-23T04:02:13.414Z,25
2019-05-23T04:02:53.980Z,25
2019-05-23T04:03:34.550Z,25
2019-05-23T04:04:15.178Z,25
2019-05-23T04:04:55.735Z,25
2019-05-23T04:05:36.304Z,25
2019-05-23T04:06:16.873Z,25
2019-05-23T04:06:57.442Z,25
2019-05-23T04:13:02.643Z,25
2019-05-23T04:13:43.240Z,25
2019-05-23T04:14:23.827Z,25
2019-05-23T04:15:04.410Z,30
2019-05-23T04:15:45.011Z,30
2019-05-23T04:16:30.135Z,30
2019-05-23T04:17:06.172Z,30
2019-05-23T04:17:46.715Z,30
2019-05-23T04:18:27.295Z,30
2019-05-23T04:25:13.067Z,30
2019-05-23T04:25:53.777Z,30
2019-05-23T04:26:34.403Z,30
2019-05-23T04:27:14.983Z,30
2019-05-23T04:27:55.547Z,30
2019-05-23T04:28:36.167Z,30
2019-05-23T04:29:16.714Z,30
2019-05-23T04:29:57.281Z,30
2019-05-23T04:36:02.537Z,35
2019-05-23T04:36:43.141Z,35
2019-05-23T04:37:23.716Z,35
2019-05-23T04:38:04.283Z,35
2019-05-23T04:38:44.828Z,35
2019-05-23T04:39:25.422Z,35
2019-05-23T04:40:05.998Z,40
2019-05-23T04:40:46.565Z,40
2019-05-23T04:41:27.142Z,40
2019-05-23T04:48:12.958Z,70
2019-05-23T04:48:53.529Z,65
2019-05-23T04:49:34.111Z,75
2019-05-23T04:50:14.724Z,70
2019-05-23T04:50:59.612Z,70
2019-05-23T04:51:35.865Z,70
2019-05-23T04:52:16.452Z,70
2019-05-23T04:52:57.030Z,70
2019-05-23T04:59:42.832Z,75
2019-05-23T05:00:23.442Z,75
2019-05-23T05:01:04.003Z,80
2019-05-23T05:01:44.566Z,75
2019-05-23T05:02:26.985Z,80
2019-05-23T05:03:05.758Z,80
2019-05-23T05:03:46.338Z,85
2019-05-23T05:04:26.929Z,85
2019-05-23T05:05:07.528Z,80
2019-05-23T05:11:12.892Z,90
2019-05-23T05:11:53.453Z,85
2019-05-23T05:12:34.022Z,85
2019-05-23T05:13:14.581Z,90
2019-05-23T05:13:55.138Z,85
2019-05-23T05:14:35.801Z,90
2019-05-23T05:15:16.379Z,85
2019-05-23T05:15:56.957Z,90
2019-05-23T05:16:37.514Z,95
2019-05-23T05:22:42.881Z,115
2019-05-23T05:23:23.414Z,115
2019-05-23T05:24:03.997Z,115
2019-05-23T05:24:44.672Z,115
2019-05-23T05:25:25.221Z,120
2019-05-23T05:26:05.805Z,115
2019-05-23T05:26:46.372Z,120
2019-05-23T05:27:26.978Z,430
2019-05-23T05:28:07.544Z,1010
2019-05-23T05:34:12.922Z,1760
2019-05-23T05:34:53.557Z,1745
2019-05-23T05:35:34.148Z,1815
2019-05-23T05:36:14.749Z,1800
2019-05-23T05:36:55.301Z,1770
2019-05-23T05:37:35.869Z,1690
2019-05-23T05:38:16.434Z,1745
2019-05-23T05:38:57.049Z,1815
2019-05-23T05:46:14.823Z,1830
2019-05-23T05:46:55.378Z,1835
2019-05-23T05:47:35.959Z,1905
2019-05-23T05:48:16.538Z,1980
2019-05-23T05:53:11.741Z,1860
2019-05-23T05:53:52.309Z,1800
2019-05-23T05:54:32.891Z,1725
2019-05-23T05:55:13.465Z,1830
2019-05-23T05:58:36.340Z,1830
2019-05-23T05:59:16.896Z,1850
2019-05-23T05:59:57.482Z,1815
2019-05-23T06:00:38.165Z,1760
2019-05-23T06:01:32.650Z,1750
2019-05-23T06:01:59.286Z,1840
2019-05-23T06:02:39.851Z,1930
2019-05-23T06:03:20.454Z,2010
2019-05-23T06:04:01.001Z,2090
2019-05-23T06:10:46.805Z,1825
2019-05-23T06:11:27.373Z,1835
2019-05-23T06:12:07.977Z,1830
2019-05-23T06:12:48.559Z,1945
2019-05-23T06:13:29.109Z,1925
2019-05-23T06:14:09.710Z,1980
2019-05-23T06:14:50.272Z,2065
2019-05-23T06:15:30.890Z,2075
2019-05-23T06:22:16.778Z,1935
2019-05-23T06:22:57.378Z,1850
2019-05-23T06:23:37.957Z,1910
2019-05-23T06:24:18.504Z,1970
2019-05-23T06:24:59.093Z,1990
2019-05-23T06:25:39.664Z,2035
2019-05-23T06:26:20.227Z,1995
2019-05-23T06:27:00.798Z,1970
2019-05-23T06:27:41.408Z,1880
2019-05-23T06:33:46.847Z,1895
2019-05-23T06:34:27.452Z,2025
2019-05-23T06:35:08.061Z,2045
2019-05-23T06:35:48.611Z,2005
2019-05-23T06:36:29.226Z,1960
2019-05-23T06:37:09.787Z,1980
2019-05-23T06:37:50.370Z,1935
2019-05-23T06:38:30.956Z,1890
2019-05-23T06:45:16.780Z,1975
2019-05-23T06:45:57.331Z,1530
2019-05-23T06:46:38.009Z,1995
2019-05-23T06:47:18.501Z,1975
2019-05-23T06:47:59.066Z,1870
2019-05-23T06:48:39.733Z,1900
2019-05-23T06:49:20.260Z,1875
2019-05-23T06:50:00.869Z,1900
2019-05-23T06:56:06.307Z,1745
2019-05-23T06:56:46.868Z,1865
2019-05-23T06:57:27.480Z,1650
2019-05-23T06:58:08.059Z,1975
2019-05-23T06:58:48.664Z,1905
2019-05-23T06:59:29.241Z,1715
2019-05-23T07:00:09.812Z,1710
2019-05-23T07:00:50.432Z,500
2019-05-23T07:01:31.034Z,275
2019-05-23T07:07:36.389Z,1000
2019-05-23T07:08:16.878Z,905
2019-05-23T07:08:57.472Z,820
2019-05-23T07:09:38.120Z,845
2019-05-23T07:10:18.714Z,790
2019-05-23T07:10:59.726Z,825
2019-05-23T07:11:39.896Z,595
2019-05-23T07:12:20.468Z,705
2019-05-23T07:13:01.036Z,775
2019-05-23T07:19:06.424Z,565
2019-05-23T07:19:46.994Z,620
2019-05-23T07:20:27.583Z,420
2019-05-23T07:21:08.155Z,240
2019-05-23T07:21:48.735Z,585
2019-05-23T07:22:29.324Z,600
2019-05-23T07:23:09.892Z,565
2019-05-23T07:23:50.467Z,570
2019-05-23T07:24:31.030Z,565
2019-05-23T07:30:36.608Z,545
2019-05-23T07:31:17.168Z,525
2019-05-23T07:31:57.741Z,535
2019-05-23T07:32:38.317Z,550
2019-05-23T07:33:18.903Z,535
2019-05-23T07:34:02.090Z,530
2019-05-23T07:34:40.065Z,535
2019-05-23T07:35:20.637Z,530
2019-05-23T07:36:01.260Z,535
2019-05-23T07:42:06.466Z,515
2019-05-23T07:42:47.045Z,510
2019-05-23T07:43:27.640Z,505
2019-05-23T07:44:08.247Z,500
2019-05-23T07:44:48.887Z,505
2019-05-23T07:45:29.496Z,515
2019-05-23T07:46:10.086Z,540
2019-05-23T07:46:50.672Z,545
2019-05-23T07:47:31.248Z,540
2019-05-23T07:53:36.596Z,520
2019-05-23T07:54:17.162Z,515
2019-05-23T07:54:57.730Z,515
2019-05-23T07:55:38.288Z,490
2019-05-23T07:56:18.862Z,485
2019-05-23T07:56:59.451Z,465
2019-05-23T07:57:40.058Z,440
2019-05-23T07:58:20.614Z,385
2019-05-23T07:59:01.205Z,285
2019-05-23T08:05:06.591Z,365
2019-05-23T08:05:47.176Z,375
2019-05-23T08:06:27.796Z,310
2019-05-23T08:07:08.323Z,285
2019-05-23T08:07:48.901Z,340
2019-05-23T08:08:29.481Z,370
2019-05-23T08:09:10.070Z,365
2019-05-23T08:09:50.713Z,360
2019-05-23T08:10:33.979Z,360
2019-05-23T08:16:36.453Z,335
2019-05-23T08:17:17.031Z,350
2019-05-23T08:17:57.641Z,360
2019-05-23T08:18:38.185Z,355
2019-05-23T08:19:19.590Z,350
2019-05-23T08:19:59.345Z,345
2019-05-23T08:20:39.894Z,345
2019-05-23T08:21:20.502Z,335
2019-05-23T08:22:01.039Z,210
2019-05-23T08:29:11.922Z,275
2019-05-23T08:29:27.510Z,165
2019-05-23T08:30:08.068Z,230
2019-05-23T08:30:48.632Z,255
2019-05-23T08:31:29.259Z,250
2019-05-23T08:32:09.859Z,170
2019-05-23T08:32:50.443Z,255
2019-05-23T08:33:31.022Z,245
2019-05-23T08:39:36.514Z,205
2019-05-23T08:40:17.094Z,205
2019-05-23T08:40:57.712Z,205
2019-05-23T08:41:38.270Z,205
2019-05-23T08:42:18.842Z,210
2019-05-23T08:42:59.520Z,200
2019-05-23T08:43:40.061Z,200
2019-05-23T08:44:20.619Z,200
2019-05-23T08:45:01.221Z,195
2019-05-23T08:51:06.659Z,195
2019-05-23T08:51:47.234Z,195
2019-05-23T08:52:27.803Z,195
2019-05-23T08:53:08.356Z,190
2019-05-23T08:53:48.999Z,175
2019-05-23T08:54:29.558Z,160
2019-05-23T08:55:10.132Z,160
2019-05-23T08:55:50.692Z,165
2019-05-23T08:56:31.317Z,160
2019-05-23T09:02:36.663Z,155
2019-05-23T09:03:17.270Z,155
2019-05-23T09:03:57.845Z,150
2019-05-23T09:04:38.411Z,145
2019-05-23T09:05:19.006Z,145
2019-05-23T09:05:59.560Z,140
2019-05-23T09:06:40.131Z,140
2019-05-23T09:07:20.691Z,145
2019-05-23T09:08:01.284Z,140
2019-05-23T09:14:06.516Z,135
2019-05-23T09:14:47.074Z,135
2019-05-23T09:15:27.661Z,135
2019-05-23T09:16:08.206Z,135
2019-05-23T09:16:48.774Z,135
2019-05-23T09:17:29.338Z,135
2019-05-23T09:18:09.911Z,130
2019-05-23T09:18:50.493Z,135
2019-05-23T09:19:31.070Z,130
2019-05-23T09:25:36.501Z,135
2019-05-23T09:26:17.049Z,135
2019-05-23T09:26:57.715Z,135
2019-05-23T09:27:38.276Z,135
2019-05-23T09:28:18.948Z,135
2019-05-23T09:28:59.437Z,135
2019-05-23T09:29:40.005Z,135
2019-05-23T09:30:20.563Z,135
2019-05-23T09:31:01.166Z,135
2019-05-23T09:37:46.901Z,130
2019-05-23T09:38:27.464Z,130
2019-05-23T09:39:08.028Z,130
2019-05-23T09:39:48.627Z,130
2019-05-23T09:40:29.178Z,130
2019-05-23T09:41:09.780Z,130
2019-05-23T09:41:50.330Z,130
2019-05-23T09:42:30.913Z,130
2019-05-23T09:48:36.320Z,125
2019-05-23T09:49:16.903Z,125
2019-05-23T09:49:57.554Z,125
2019-05-23T09:50:38.111Z,120
2019-05-23T09:51:18.691Z,120
2019-05-23T09:52:01.289Z,120
2019-05-23T09:52:39.864Z,125
2019-05-23T09:53:20.447Z,125
2019-05-23T09:54:01.019Z,125
2019-05-23T10:00:06.345Z,120
2019-05-23T10:00:46.905Z,120
2019-05-23T10:01:27.494Z,120
2019-05-23T10:02:08.065Z,120
2019-05-23T10:02:48.629Z,120
2019-05-23T10:03:29.192Z,125
2019-05-23T10:04:09.745Z,125
2019-05-23T10:04:50.339Z,120
2019-05-23T10:05:42.469Z,120
2019-05-23T10:12:16.702Z,120
2019-05-23T10:12:57.309Z,120
2019-05-23T10:13:39.523Z,120
2019-05-23T10:14:18.496Z,120
2019-05-23T10:14:59.057Z,120
2019-05-23T10:15:39.619Z,120
2019-05-23T10:16:20.178Z,120
2019-05-23T10:17:00.757Z,120
2019-05-23T10:23:46.802Z,115
2019-05-23T10:24:27.386Z,115
2019-05-23T10:25:07.964Z,115
2019-05-23T10:25:48.791Z,115
2019-05-23T10:26:29.384Z,115
2019-05-23T10:27:09.920Z,120
2019-05-23T10:27:50.503Z,115
2019-05-23T10:28:31.090Z,115
2019-05-23T10:35:16.877Z,110
2019-05-23T10:36:00.681Z,110
2019-05-23T10:36:38.007Z,110
2019-05-23T10:37:18.581Z,110
2019-05-23T10:37:59.190Z,110
2019-05-23T10:38:39.751Z,110
2019-05-23T10:39:20.327Z,110
2019-05-23T10:40:00.875Z,110
2019-05-23T10:46:46.677Z,110
2019-05-23T10:47:27.251Z,110
2019-05-23T10:48:07.836Z,110
2019-05-23T10:48:48.395Z,110
2019-05-23T10:49:28.956Z,110
2019-05-23T10:50:10.225Z,110
2019-05-23T10:50:50.091Z,110
2019-05-23T10:51:30.699Z,105
2019-05-23T10:52:11.277Z,105
2019-05-23T10:58:16.361Z,105
2019-05-23T10:58:56.927Z,105
2019-05-23T10:59:37.495Z,105
2019-05-23T11:00:18.087Z,105
2019-05-23T11:00:58.655Z,105
2019-05-23T11:01:39.206Z,105
2019-05-23T11:02:19.761Z,105
2019-05-23T11:03:00.339Z,105
2019-05-23T11:03:40.898Z,105
2019-05-23T11:10:26.724Z,105
2019-05-23T11:11:07.361Z,105
2019-05-23T11:11:47.929Z,105
2019-05-23T11:12:28.506Z,105
2019-05-23T11:13:09.071Z,105
2019-05-23T11:13:49.639Z,105
2019-05-23T11:14:30.202Z,105
2019-05-23T11:15:10.788Z,105
2019-05-23T11:15:51.370Z,105
2019-05-23T11:21:56.663Z,110
2019-05-23T11:22:37.248Z,110
2019-05-23T11:23:17.854Z,110
2019-05-23T11:23:58.441Z,110
2019-05-23T11:24:39.091Z,110
2019-05-23T11:25:19.640Z,110
2019-05-23T11:26:01.541Z,110
2019-05-23T11:26:41.077Z,110
2019-05-23T11:33:26.916Z,120
2019-05-23T11:34:07.538Z,120
2019-05-23T11:34:48.166Z,125
2019-05-23T11:35:28.765Z,125
2019-05-23T11:36:09.359Z,125
2019-05-23T11:36:49.920Z,125
2019-05-23T11:37:30.527Z,125
2019-05-23T11:38:11.089Z,125
2019-05-23T11:44:16.391Z,135
2019-05-23T11:44:56.992Z,135
2019-05-23T11:45:45.360Z,135
2019-05-23T11:46:18.184Z,135
2019-05-23T11:46:58.748Z,135
2019-05-23T11:47:39.353Z,135
2019-05-23T11:48:19.959Z,140
2019-05-23T11:49:00.514Z,135
2019-05-23T11:49:41.411Z,135
2019-05-23T11:52:26.292Z,135
2019-05-23T11:53:06.847Z,135
2019-05-23T11:54:05.834Z,135
2019-05-23T11:54:28.063Z,135
2019-05-23T11:55:08.586Z,130
2019-05-23T11:55:53.873Z,130
2019-05-23T11:56:29.727Z,130
2019-05-23T11:57:10.420Z,130
2019-05-23T11:57:50.969Z,125
2019-05-23T12:04:27.822Z,115
2019-05-23T12:05:08.384Z,115
2019-05-23T12:05:48.949Z,120
2019-05-23T12:06:29.509Z,120
2019-05-23T12:09:56.288Z,120
2019-05-23T12:10:36.845Z,120
2019-05-23T12:11:17.411Z,120
2019-05-23T12:17:22.597Z,110
2019-05-23T12:18:03.174Z,115
2019-05-23T12:18:43.748Z,115
2019-05-23T12:19:24.861Z,110
2019-05-23T12:20:04.925Z,115
2019-05-23T12:20:45.445Z,110
2019-05-23T12:21:25.998Z,110
2019-05-23T12:22:06.565Z,115
2019-05-23T12:22:47.256Z,110
2019-05-23T12:29:32.869Z,115
2019-05-23T12:30:13.467Z,115
2019-05-23T12:30:54.043Z,115
2019-05-23T12:31:34.628Z,115
2019-05-23T12:32:15.213Z,115
2019-05-23T12:32:55.788Z,115
2019-05-23T12:33:36.356Z,115
2019-05-23T12:34:16.954Z,115
2019-05-23T12:41:02.829Z,130
2019-05-23T12:41:43.405Z,125
2019-05-23T12:42:23.964Z,130
2019-05-23T12:46:03.409Z,130
2019-05-23T12:46:43.969Z,130
2019-05-23T12:47:24.540Z,130
2019-05-23T12:48:05.096Z,140
2019-05-23T12:51:27.985Z,145
2019-05-23T12:52:08.561Z,145
2019-05-23T12:52:49.109Z,145
2019-05-23T12:53:29.974Z,145
2019-05-23T12:54:11.021Z,145
2019-05-23T12:54:51.918Z,150
2019-05-23T12:55:32.919Z,150
2019-05-23T12:59:38.434Z,150
2019-05-23T13:00:19.426Z,150
2019-05-23T13:01:00.425Z,145
2019-05-23T13:01:41.043Z,140
2019-05-23T13:02:21.832Z,145
2019-05-23T13:03:02.616Z,140
2019-05-23T13:08:28.262Z,145
2019-05-23T13:09:09.102Z,150
2019-05-23T13:09:49.758Z,150
2019-05-23T13:10:30.340Z,150
2019-05-23T13:11:10.985Z,150
2019-05-23T13:11:51.720Z,95
2019-05-23T13:12:32.430Z,105
2019-05-23T13:17:58.262Z,135
2019-05-23T13:18:39.281Z,140
2019-05-23T13:19:20.025Z,140
2019-05-23T13:20:00.596Z,135
2019-05-23T13:20:41.202Z,135
2019-05-23T13:21:21.755Z,130
2019-05-23T13:22:02.616Z,125
2019-05-23T13:26:48.420Z,125
2019-05-23T13:27:29.192Z,120
2019-05-23T13:28:09.806Z,125
2019-05-23T13:28:50.387Z,125
2019-05-23T13:29:30.964Z,130
2019-05-23T13:30:11.697Z,125
2019-05-23T13:30:52.348Z,120
2019-05-23T13:31:33.291Z,110
2019-05-23T13:36:18.637Z,125
2019-05-23T13:36:59.600Z,130
2019-05-23T13:37:52.743Z,130
2019-05-23T13:38:20.862Z,130
2019-05-23T13:39:01.464Z,130
2019-05-23T13:39:42.028Z,125
2019-05-23T13:40:22.620Z,115
2019-05-23T13:45:48.484Z,140
2019-05-23T13:46:29.310Z,140
2019-05-23T13:47:09.872Z,140
2019-05-23T13:47:50.671Z,140
2019-05-23T13:48:31.592Z,145
2019-05-23T13:49:12.267Z,145
2019-05-23T13:53:58.208Z,145
2019-05-23T13:54:39.027Z,145
2019-05-23T13:55:19.721Z,140
2019-05-23T13:56:00.584Z,140
2019-05-23T13:56:41.157Z,140
2019-05-23T13:57:22.147Z,135
2019-05-23T14:01:17.532Z,130
2019-05-23T14:01:58.095Z,130
2019-05-23T14:02:38.667Z,130
2019-05-23T14:03:19.604Z,135
2019-05-23T14:06:02.437Z,145
2019-05-23T14:06:43.215Z,135
2019-05-23T14:07:23.778Z,140
2019-05-23T14:08:12.083Z,130
2019-05-23T14:08:45.212Z,125
2019-05-23T14:09:25.775Z,130
2019-05-23T14:10:06.434Z,130
2019-05-23T14:16:12.104Z,130
2019-05-23T14:16:52.463Z,135
2019-05-23T14:17:33.092Z,135
2019-05-23T14:18:13.813Z,130
2019-05-23T14:18:54.382Z,130
2019-05-23T14:19:34.950Z,130
2019-05-23T14:20:15.581Z,130
2019-05-23T14:20:56.146Z,130
2019-05-23T14:21:36.782Z,130
2019-05-23T14:27:01.991Z,125
2019-05-23T14:27:42.756Z,120
2019-05-23T14:28:23.332Z,120
2019-05-23T14:29:03.989Z,125
2019-05-23T14:29:44.555Z,120
2019-05-23T14:30:25.318Z,120
2019-05-23T14:31:06.062Z,115
2019-05-23T14:31:46.852Z,115
2019-05-23T14:37:12.077Z,125
2019-05-23T14:37:52.635Z,125
2019-05-23T14:38:33.215Z,100
2019-05-23T14:39:13.784Z,80
2019-05-23T14:39:54.356Z,80
2019-05-23T14:40:34.946Z,140
2019-05-23T14:41:15.505Z,140
2019-05-23T14:41:56.080Z,145
2019-05-23T14:42:36.619Z,145
2019-05-23T14:48:41.856Z,130
2019-05-23T14:49:22.394Z,150
2019-05-23T14:50:02.962Z,155
2019-05-23T14:50:43.525Z,85
2019-05-23T14:51:24.095Z,80
2019-05-23T14:52:04.666Z,85
2019-05-23T14:52:45.244Z,135
2019-05-23T14:53:25.803Z,155
2019-05-23T14:54:06.381Z,100
2019-05-23T15:00:52.104Z,150
2019-05-23T15:01:33.287Z,150
2019-05-23T15:02:14.460Z,150
2019-05-23T15:02:55.545Z,140
2019-05-23T15:06:21.989Z,150
2019-05-23T15:07:03.168Z,145
2019-05-23T15:07:44.375Z,145
2019-05-23T15:08:25.428Z,145
2019-05-23T15:09:06.589Z,145
2019-05-23T15:12:32.432Z,140
2019-05-23T15:13:13.630Z,140
2019-05-23T15:13:54.889Z,135
2019-05-23T15:14:36.047Z,135
2019-05-23T15:17:55.783Z,135
2019-05-23T15:18:36.990Z,130
2019-05-23T15:19:38.075Z,130
2019-05-23T15:19:59.390Z,130
2019-05-23T15:20:40.434Z,130
2019-05-23T15:21:21.505Z,130
2019-05-23T15:22:02.416Z,135
2019-05-23T15:22:43.593Z,135
2019-05-23T15:23:24.616Z,135
2019-05-23T15:26:50.490Z,130
2019-05-23T15:27:33.132Z,125
2019-05-23T15:28:12.828Z,70
2019-05-23T15:28:54.016Z,70
2019-05-23T15:33:00.899Z,65
2019-05-23T15:33:42.061Z,65
2019-05-23T15:34:22.986Z,65
2019-05-23T15:35:04.113Z,90
2019-05-23T15:35:45.037Z,130
2019-05-23T15:39:50.433Z,120
2019-05-23T15:40:31.190Z,120
2019-05-23T15:41:12.275Z,115
2019-05-23T15:41:53.090Z,115
2019-05-23T15:42:33.810Z,105
2019-05-23T15:43:14.495Z,110
2019-05-23T15:50:00.311Z,120
2019-05-23T15:50:40.908Z,115
2019-05-23T15:51:21.479Z,115
2019-05-23T15:52:02.089Z,115
2019-05-23T15:52:42.634Z,115
2019-05-23T15:53:23.197Z,105
2019-05-23T15:54:03.775Z,110
2019-05-23T15:54:44.325Z,100
2019-05-23T15:55:24.952Z,85
2019-05-23T16:01:30.089Z,95
2019-05-23T16:02:10.660Z,95
2019-05-23T16:02:51.219Z,95
2019-05-23T16:03:31.834Z,100
2019-05-23T16:04:12.327Z,105
2019-05-23T16:04:52.907Z,70
2019-05-23T16:05:33.457Z,70
2019-05-23T16:06:14.065Z,70
2019-05-23T16:06:54.706Z,70
2019-05-23T16:13:40.280Z,65
2019-05-23T16:14:20.851Z,65
2019-05-23T16:15:01.459Z,90
2019-05-23T16:15:42.037Z,90
2019-05-23T16:16:22.620Z,90
2019-05-23T16:17:03.200Z,90
2019-05-23T16:17:43.746Z,95
2019-05-23T16:18:24.829Z,95
2019-05-23T16:19:04.921Z,95
2019-05-23T16:25:10.105Z,85
2019-05-23T16:25:51.116Z,65
2019-05-23T16:26:31.656Z,60
2019-05-23T16:27:12.220Z,55
2019-05-23T16:27:52.813Z,60
2019-05-23T16:28:33.400Z,70
2019-05-23T16:29:13.962Z,70
2019-05-23T16:29:54.534Z,90
2019-05-23T16:36:40.360Z,85
2019-05-23T16:37:20.949Z,70
2019-05-23T16:38:01.491Z,70
2019-05-23T16:38:42.054Z,90
2019-05-23T16:39:22.642Z,100
2019-05-23T16:40:03.177Z,100
2019-05-23T16:40:43.772Z,100
2019-05-23T16:41:24.389Z,100
2019-05-23T16:42:04.912Z,100
2019-05-23T16:48:10.027Z,90
2019-05-23T16:48:50.569Z,95
2019-05-23T16:49:31.200Z,90
2019-05-23T16:50:11.721Z,90
2019-05-23T16:53:51.533Z,75
2019-05-23T16:54:32.393Z,75
2019-05-23T16:55:13.155Z,75
2019-05-23T16:55:53.760Z,75
2019-05-23T16:58:36.171Z,65
2019-05-23T16:59:16.762Z,65
2019-05-23T16:59:57.332Z,65
2019-05-23T17:00:38.215Z,65
2019-05-23T17:01:23.972Z,60
2019-05-23T17:02:05.862Z,60
2019-05-23T17:02:39.704Z,60
2019-05-23T17:03:20.262Z,60
2019-05-23T17:04:00.832Z,55
2019-05-23T17:10:08.747Z,50
2019-05-23T17:10:46.601Z,50
2019-05-23T17:11:29.469Z,50
2019-05-23T17:12:07.780Z,50
2019-05-23T17:12:48.335Z,50
2019-05-23T17:13:29.319Z,50
2019-05-23T17:14:09.473Z,50
2019-05-23T17:14:51.974Z,50
2019-05-23T17:15:30.597Z,50
2019-05-23T17:22:16.562Z,35
2019-05-23T17:22:56.867Z,35
2019-05-23T17:23:37.440Z,35
2019-05-23T17:24:18.004Z,35
2019-05-23T17:24:58.565Z,35
2019-05-23T17:25:39.227Z,35
2019-05-23T17:26:19.711Z,35
2019-05-23T17:27:00.259Z,30
2019-05-23T17:27:40.839Z,30
2019-05-23T17:33:46.123Z,30
2019-05-23T17:34:26.719Z,30
2019-05-23T17:35:07.280Z,30
2019-05-23T17:35:47.860Z,30
2019-05-23T17:36:28.431Z,30
2019-05-23T17:37:08.978Z,35
2019-05-23T17:37:49.547Z,35
2019-05-23T17:38:30.106Z,35
2019-05-23T17:39:10.695Z,35
2019-05-23T17:45:56.364Z,30
2019-05-23T17:46:36.946Z,30
2019-05-23T17:47:17.525Z,30
2019-05-23T17:47:58.131Z,30
2019-05-23T17:48:38.696Z,30
2019-05-23T17:49:19.259Z,30
2019-05-23T17:49:59.835Z,30
2019-05-23T17:50:40.415Z,30
2019-05-23T17:51:20.986Z,30
2019-05-23T17:56:06.384Z,25
2019-05-23T17:56:46.515Z,25
2019-05-23T17:57:27.595Z,25
2019-05-23T17:58:08.618Z,25
2019-05-23T17:58:49.836Z,25
2019-05-23T17:59:30.451Z,25
2019-05-23T18:04:55.983Z,25
2019-05-23T18:05:36.656Z,25
2019-05-23T18:06:17.237Z,20
2019-05-23T18:06:57.777Z,20
2019-05-23T18:07:39.338Z,20
2019-05-23T18:08:19.839Z,20
2019-05-23T18:09:00.418Z,20
2019-05-23T18:15:46.458Z,15
2019-05-23T18:16:27.438Z,15
2019-05-23T18:17:07.999Z,15
2019-05-23T18:17:48.576Z,15
2019-05-23T18:18:29.229Z,15
2019-05-23T18:19:10.138Z,15
2019-05-23T18:19:50.676Z,15
2019-05-23T18:25:16.450Z,15
2019-05-23T18:25:57.275Z,15
2019-05-23T18:26:37.918Z,15
2019-05-23T18:27:18.631Z,10
2019-05-23T18:27:59.202Z,10
2019-05-23T18:28:39.958Z,10
2019-05-23T18:29:20.571Z,10
2019-05-23T18:35:26.337Z,10
2019-05-23T18:36:06.940Z,10